createdAt,value
2022-11-29T00:00:58.453Z,4.50
2022-11-29T00:03:25.729Z,4.50
2022-11-29T00:05:53.322Z,4.40
2022-11-29T00:08:20.545Z,4.50
2022-11-29T00:10:47.327Z,4.50
2022-11-29T00:13:14.155Z,4.50
2022-11-29T00:15:41.067Z,4.50
2022-11-29T00:18:08.007Z,4.50
2022-11-29T00:20:35.121Z,4.50
2022-11-29T00:23:02.200Z,4.50
2022-11-29T00:25:29.000Z,4.50
2022-11-29T00:27:55.718Z,4.50
2022-11-29T00:30:22.469Z,4.40
2022-11-29T00:32:49.262Z,4.50
2022-11-29T00:35:16.059Z,4.50
2022-11-29T00:37:42.808Z,4.50
2022-11-29T00:40:09.904Z,4.50
2022-11-29T00:44:02.667Z,4.50
2022-11-29T00:46:29.464Z,4.50
2022-11-29T00:48:56.211Z,4.50
2022-11-29T00:51:22.976Z,4.50
2022-11-29T00:53:49.732Z,4.50
2022-11-29T00:56:16.525Z,4.50
2022-11-29T00:58:46.202Z,4.50
2022-11-29T01:01:13.001Z,4.40
2022-11-29T01:03:39.986Z,4.40
2022-11-29T01:06:11.524Z,4.50
2022-11-29T01:08:38.521Z,4.50
2022-11-29T01:11:18.846Z,4.50
2022-11-29T01:13:45.686Z,4.50
2022-11-29T01:16:13.319Z,4.50
2022-11-29T01:18:40.182Z,4.50
2022-11-29T01:21:08.989Z,4.50
2022-11-29T01:23:36.209Z,4.50
2022-11-29T01:26:11.950Z,4.50
2022-11-29T01:28:38.963Z,4.40
2022-11-29T01:31:07.640Z,4.50
2022-11-29T01:33:35.009Z,4.40
2022-11-29T01:36:01.888Z,4.50
2022-11-29T01:38:28.637Z,4.50
2022-11-29T01:41:12.662Z,4.40
2022-11-29T01:44:00.712Z,4.40
2022-11-29T01:46:28.919Z,4.50
2022-11-29T01:53:20.794Z,4.50
2022-11-29T01:55:50.693Z,4.50
2022-11-29T01:58:17.702Z,4.50
2022-11-29T02:00:44.472Z,4.50
2022-11-29T02:03:12.885Z,4.50
2022-11-29T02:05:41.388Z,4.50
2022-11-29T02:08:08.433Z,4.50
2022-11-29T02:10:56.754Z,4.50
2022-11-29T02:13:29.466Z,4.50
2022-11-29T02:16:25.846Z,4.50
2022-11-29T02:19:39.184Z,4.60
2022-11-29T02:22:09.007Z,4.60
2022-11-29T02:24:51.372Z,4.50
2022-11-29T02:27:36.425Z,4.50
2022-11-29T02:30:36.913Z,4.60
2022-11-29T02:33:09.665Z,4.60
2022-11-29T02:35:45.017Z,4.60
2022-11-29T02:38:36.104Z,4.60
2022-11-29T02:45:01.150Z,4.60
2022-11-29T02:47:55.263Z,4.60
2022-11-29T02:50:35.644Z,4.50
2022-11-29T02:53:21.537Z,4.50
2022-11-29T02:56:04.685Z,4.50
2022-11-29T02:58:39.082Z,4.50
2022-11-29T03:01:16.930Z,4.50
2022-11-29T03:03:46.512Z,4.50
2022-11-29T03:06:39.810Z,4.50
2022-11-29T03:09:34.021Z,4.50
2022-11-29T03:12:19.642Z,4.50
2022-11-29T03:14:49.272Z,4.50
2022-11-29T03:17:53.310Z,4.60
2022-11-29T03:20:27.966Z,4.60
2022-11-29T03:25:57.101Z,4.60
2022-11-29T03:28:52.402Z,4.60
2022-11-29T03:31:28.984Z,4.60
2022-11-29T03:34:04.868Z,4.60
2022-11-29T03:36:40.606Z,4.60
2022-11-29T03:40:00.040Z,4.60
2022-11-29T03:42:30.468Z,4.60
2022-11-29T03:45:30.898Z,4.60
2022-11-29T03:48:11.565Z,4.60
2022-11-29T03:55:08.761Z,4.60
2022-11-29T03:58:01.963Z,4.70
2022-11-29T04:00:32.511Z,4.60
2022-11-29T04:03:14.217Z,4.60
2022-11-29T04:05:58.904Z,4.60
2022-11-29T04:08:46.439Z,4.60
2022-11-29T04:11:34.681Z,4.60
2022-11-29T04:14:16.363Z,4.60
2022-11-29T04:17:33.818Z,4.60
2022-11-29T04:20:24.235Z,4.60
2022-11-29T04:24:25.700Z,4.60
2022-11-29T04:27:13.502Z,4.60
2022-11-29T04:34:40.649Z,4.60
2022-11-29T04:37:25.882Z,4.60
2022-11-29T04:40:20.554Z,4.70
2022-11-29T04:43:09.208Z,4.70
2022-11-29T04:45:45.018Z,4.70
2022-11-29T04:53:37.450Z,4.70
2022-11-29T04:56:23.099Z,4.70
2022-11-29T04:59:03.331Z,4.70
2022-11-29T05:06:01.755Z,4.70
2022-11-29T05:08:57.570Z,4.80
2022-11-29T05:11:42.426Z,4.80
2022-11-29T05:17:25.479Z,4.70
2022-11-29T05:23:50.126Z,4.80
2022-11-29T05:26:38.343Z,4.80
2022-11-29T05:32:22.214Z,4.80
2022-11-29T05:50:40.300Z,4.80
2022-11-29T06:08:57.960Z,4.70
2022-11-29T06:14:55.501Z,4.70
2022-11-29T06:17:39.613Z,4.70
2022-11-29T06:20:20.464Z,4.70
2022-11-29T06:23:13.170Z,4.70
2022-11-29T06:26:04.043Z,4.70
2022-11-29T06:34:55.102Z,4.70
2022-11-29T06:37:25.218Z,4.70
2022-11-29T06:39:52.305Z,4.70
2022-11-29T06:42:19.104Z,4.70
2022-11-29T06:44:46.314Z,4.80
2022-11-29T06:47:37.842Z,4.80
2022-11-29T06:50:28.652Z,4.80
2022-11-29T06:53:17.098Z,4.80
2022-11-29T06:55:49.651Z,4.80
2022-11-29T06:58:58.514Z,4.80
2022-11-29T07:01:43.749Z,4.80
2022-11-29T07:05:07.044Z,4.80
2022-11-29T07:07:34.260Z,4.80
2022-11-29T07:10:01.954Z,4.80
2022-11-29T07:12:29.010Z,4.80
2022-11-29T07:14:56.205Z,4.80
2022-11-29T07:17:44.853Z,4.90
2022-11-29T07:20:43.985Z,4.90
2022-11-29T07:23:14.066Z,4.90
2022-11-29T07:25:59.356Z,4.90
2022-11-29T07:28:35.070Z,4.90
2022-11-29T07:35:24.557Z,5.00
2022-11-29T07:38:16.443Z,5.00
2022-11-29T07:40:49.563Z,5.00
2022-11-29T07:43:38.605Z,5.00
2022-11-29T07:46:05.430Z,5.00
2022-11-29T07:48:32.190Z,5.00
2022-11-29T07:50:58.945Z,5.00
2022-11-29T07:53:25.735Z,5.00
2022-11-29T07:55:52.583Z,5.10
2022-11-29T07:58:19.501Z,5.10
2022-11-29T08:00:46.473Z,5.10
2022-11-29T08:08:16.471Z,5.10
2022-11-29T08:10:43.399Z,5.10
2022-11-29T08:13:10.250Z,5.10
2022-11-29T08:15:37.031Z,5.10
2022-11-29T08:18:04.007Z,5.20
2022-11-29T08:20:30.729Z,5.20
2022-11-29T08:22:58.889Z,5.20
2022-11-29T08:25:26.576Z,5.20
2022-11-29T08:27:54.601Z,5.20
2022-11-29T08:30:24.835Z,5.20
2022-11-29T08:32:51.927Z,5.20
2022-11-29T08:35:22.247Z,5.20
2022-11-29T08:37:49.227Z,5.30
2022-11-29T08:41:50.602Z,5.30
2022-11-29T08:44:18.211Z,5.30
2022-11-29T08:47:03.771Z,5.30
2022-11-29T08:49:30.520Z,5.40
2022-11-29T08:52:17.268Z,5.40
2022-11-29T08:54:44.460Z,5.30
2022-11-29T08:57:38.532Z,5.30
2022-11-29T08:59:58.352Z,5.30
2022-11-29T09:02:25.203Z,5.40
2022-11-29T09:04:52.078Z,5.40
2022-11-29T09:07:18.819Z,5.50
2022-11-29T09:09:45.638Z,5.50
2022-11-29T09:12:12.350Z,5.60
2022-11-29T09:14:39.051Z,5.60
2022-11-29T09:17:05.768Z,5.60
2022-11-29T09:21:08.924Z,5.60
2022-11-29T09:23:39.222Z,5.60
2022-11-29T09:26:06.325Z,5.60
2022-11-29T09:28:33.428Z,5.60
2022-11-29T09:31:07.430Z,5.60
2022-11-29T09:33:34.577Z,5.70
2022-11-29T09:36:01.624Z,5.70
2022-11-29T09:38:28.481Z,5.70
2022-11-29T09:41:08.137Z,5.80
2022-11-29T09:43:49.979Z,5.80
2022-11-29T09:46:22.897Z,5.80
2022-11-29T09:49:15.793Z,5.80
2022-11-29T09:51:48.023Z,5.80
2022-11-29T09:54:56.962Z,5.80
2022-11-29T09:57:25.001Z,5.80
2022-11-29T09:59:53.463Z,5.90
2022-11-29T10:02:47.636Z,5.90
2022-11-29T10:05:24.310Z,5.90
2022-11-29T10:07:56.453Z,5.90
2022-11-29T10:10:29.759Z,5.90
2022-11-29T10:13:15.883Z,5.90
2022-11-29T10:15:44.354Z,6.00
2022-11-29T10:18:31.221Z,6.00
2022-11-29T10:20:59.480Z,6.10
2022-11-29T10:23:48.222Z,6.10
2022-11-29T10:29:20.902Z,6.20
2022-11-29T10:31:49.537Z,6.20
2022-11-29T10:34:21.298Z,6.10
2022-11-29T10:36:53.712Z,6.10
2022-11-29T10:39:30.710Z,6.20
2022-11-29T10:42:00.276Z,6.20
2022-11-29T10:44:27.155Z,6.20
2022-11-29T10:46:53.977Z,6.20
2022-11-29T10:49:23.291Z,6.30
2022-11-29T10:51:50.095Z,6.30
2022-11-29T10:54:40.178Z,6.30
2022-11-29T10:57:20.637Z,6.20
2022-11-29T11:00:09.833Z,6.20
2022-11-29T11:02:36.726Z,6.20
2022-11-29T11:05:04.084Z,6.20
2022-11-29T11:07:38.192Z,6.20
2022-11-29T11:10:06.238Z,6.20
2022-11-29T11:12:33.820Z,6.20
2022-11-29T11:15:29.493Z,6.20
2022-11-29T11:18:00.705Z,6.30
2022-11-29T11:24:02.949Z,6.30
2022-11-29T11:26:44.541Z,6.30
2022-11-29T11:29:18.205Z,6.30
2022-11-29T11:31:57.082Z,6.30
2022-11-29T11:34:37.283Z,6.30
2022-11-29T11:37:16.430Z,6.30
2022-11-29T11:39:43.835Z,6.30
2022-11-29T11:42:34.323Z,6.30
2022-11-29T11:45:01.567Z,6.40
2022-11-29T11:47:29.914Z,6.40
2022-11-29T11:50:02.487Z,6.40
2022-11-29T11:53:58.708Z,6.50
2022-11-29T11:56:27.769Z,6.50
2022-11-29T12:02:39.995Z,6.50
2022-11-29T12:05:12.667Z,6.50
2022-11-29T12:08:08.452Z,6.50
2022-11-29T12:10:35.626Z,6.50
2022-11-29T12:13:02.511Z,6.50
2022-11-29T12:15:35.549Z,6.50
2022-11-29T12:18:12.592Z,6.50
2022-11-29T12:20:48.588Z,6.50
2022-11-29T12:23:15.408Z,6.50
2022-11-29T12:25:57.378Z,6.50
2022-11-29T12:28:40.020Z,6.50
2022-11-29T12:31:06.941Z,6.50
2022-11-29T12:34:04.969Z,6.50
2022-11-29T12:36:52.020Z,6.50
2022-11-29T12:39:18.825Z,6.50
2022-11-29T12:42:19.432Z,6.50
2022-11-29T12:45:11.971Z,6.60
2022-11-29T12:48:00.694Z,6.60
2022-11-29T12:50:44.213Z,6.60
2022-11-29T12:53:35.315Z,6.60
2022-11-29T12:56:36.724Z,6.60
2022-11-29T12:59:15.678Z,6.60
2022-11-29T13:02:03.671Z,6.60
2022-11-29T13:04:30.480Z,6.60
2022-11-29T13:07:26.638Z,6.60
2022-11-29T13:17:28.595Z,6.50
2022-11-29T13:20:20.103Z,6.60
2022-11-29T13:22:53.007Z,6.60
2022-11-29T13:25:26.376Z,6.60
2022-11-29T13:28:01.912Z,6.60
2022-11-29T13:31:53.830Z,6.60
2022-11-29T13:34:40.855Z,6.60
2022-11-29T13:37:21.095Z,6.60
2022-11-29T13:39:55.568Z,6.50
2022-11-29T13:42:29.412Z,6.50
2022-11-29T13:48:33.778Z,6.40
2022-11-29T13:51:21.633Z,6.40
2022-11-29T13:53:49.405Z,6.40
2022-11-29T13:56:47.737Z,6.40
2022-11-29T13:59:23.325Z,6.40
2022-11-29T14:01:51.703Z,6.40
2022-11-29T14:18:42.827Z,6.30
2022-11-29T14:21:10.341Z,6.30
2022-11-29T14:31:50.486Z,6.20
2022-11-29T14:34:21.080Z,6.20
2022-11-29T14:36:59.307Z,6.20
2022-11-29T14:40:43.032Z,6.10
2022-11-29T14:43:37.978Z,6.10
2022-11-29T14:46:16.600Z,6.10
2022-11-29T14:49:03.831Z,6.10
2022-11-29T14:51:31.860Z,6.10
2022-11-29T14:54:05.227Z,6.10
2022-11-29T14:57:44.601Z,6.10
2022-11-29T15:00:12.679Z,6.00
2022-11-29T15:03:12.901Z,6.00
2022-11-29T15:08:04.439Z,5.90
2022-11-29T15:10:34.623Z,5.90
2022-11-29T15:13:03.318Z,5.90
2022-11-29T15:16:04.310Z,5.80
2022-11-29T15:18:54.055Z,5.80
2022-11-29T15:21:40.045Z,5.80
2022-11-29T15:24:12.623Z,5.80
2022-11-29T15:26:50.141Z,5.70
2022-11-29T15:29:21.393Z,5.70
2022-11-29T15:32:00.318Z,5.70
2022-11-29T15:34:33.281Z,5.70
2022-11-29T15:38:06.186Z,5.70
2022-11-29T15:40:37.650Z,5.70
2022-11-29T15:43:26.875Z,5.70
2022-11-29T15:45:56.390Z,5.60
2022-11-29T15:48:28.354Z,5.60
2022-11-29T15:52:37.707Z,5.60
2022-11-29T15:55:07.493Z,5.60
2022-11-29T15:57:42.939Z,5.70
2022-11-29T16:00:20.627Z,5.70
2022-11-29T16:02:52.304Z,5.60
2022-11-29T16:05:24.070Z,5.60
2022-11-29T16:07:53.006Z,5.60
2022-11-29T16:10:23.761Z,5.60
2022-11-29T16:12:57.907Z,5.60
2022-11-29T16:15:27.297Z,5.60
2022-11-29T16:17:54.073Z,5.60
2022-11-29T16:20:25.063Z,5.60
2022-11-29T16:23:07.947Z,5.60
2022-11-29T16:25:37.807Z,5.60
2022-11-29T16:28:05.968Z,5.60
2022-11-29T16:33:00.464Z,5.60
2022-11-29T16:35:28.557Z,5.60
2022-11-29T16:37:55.309Z,5.60
2022-11-29T16:40:28.981Z,5.60
2022-11-29T16:45:39.170Z,5.60
2022-11-29T16:48:38.155Z,5.60
2022-11-29T16:51:11.296Z,5.60
2022-11-29T16:53:48.521Z,5.50
2022-11-29T16:56:17.337Z,5.50
2022-11-29T17:00:30.071Z,5.50
2022-11-29T17:12:25.751Z,5.60
2022-11-29T17:14:52.556Z,5.70
2022-11-29T17:25:19.249Z,5.70
2022-11-29T17:28:45.736Z,5.70
2022-11-29T17:31:13.607Z,5.70
2022-11-29T17:33:40.502Z,5.60
2022-11-29T17:43:29.539Z,5.60
2022-11-29T17:45:56.623Z,5.60
2022-11-29T17:48:23.560Z,5.60
2022-11-29T17:56:36.442Z,5.60
2022-11-29T18:10:12.178Z,5.40
2022-11-29T18:20:47.358Z,5.40
2022-11-29T18:25:38.601Z,5.40
2022-11-29T18:28:07.477Z,5.40
2022-11-29T18:30:34.276Z,5.40
2022-11-29T18:33:01.075Z,5.40
2022-11-29T18:35:28.084Z,5.40
2022-11-29T18:38:14.702Z,5.40
2022-11-29T18:40:42.570Z,5.40
2022-11-29T18:43:09.479Z,5.40
2022-11-29T18:48:44.568Z,5.40
2022-11-29T18:51:15.536Z,5.40
2022-11-29T18:54:49.401Z,5.40
2022-11-29T18:57:16.235Z,5.40
2022-11-29T18:59:43.027Z,5.40
2022-11-29T19:02:10.872Z,5.50
2022-11-29T19:04:38.212Z,5.50
2022-11-29T19:07:05.202Z,5.50
2022-11-29T19:13:05.361Z,5.50
2022-11-29T19:15:32.244Z,5.50
2022-11-29T19:17:59.074Z,5.50
2022-11-29T19:20:25.798Z,5.50
2022-11-29T19:22:57.441Z,5.50
2022-11-29T19:25:26.989Z,5.50
2022-11-29T19:30:21.643Z,5.50
2022-11-29T19:32:48.406Z,5.50
2022-11-29T19:35:15.242Z,5.50
2022-11-29T19:37:42.203Z,5.50
2022-11-29T19:40:28.592Z,5.50
2022-11-29T19:42:55.375Z,5.50
2022-11-29T19:45:22.330Z,5.50
2022-11-29T19:48:19.757Z,5.50
2022-11-29T19:50:46.607Z,5.50
2022-11-29T19:53:13.377Z,5.50
2022-11-29T20:01:19.256Z,5.60
2022-11-29T20:03:46.282Z,5.60
2022-11-29T20:06:16.111Z,5.70
2022-11-29T20:11:50.234Z,5.70
2022-11-29T20:14:17.197Z,5.70
2022-11-29T20:16:44.383Z,5.70
2022-11-29T20:24:12.357Z,5.70
2022-11-29T20:26:39.458Z,5.70
2022-11-29T20:29:06.642Z,5.70
2022-11-29T20:31:34.220Z,5.70
2022-11-29T20:34:01.327Z,5.70
2022-11-29T20:41:14.614Z,5.70
2022-11-29T20:43:47.241Z,5.80
2022-11-29T20:46:14.263Z,5.80
2022-11-29T20:48:41.280Z,5.80
2022-11-29T20:51:10.289Z,5.90
2022-11-29T20:53:41.597Z,5.80
2022-11-29T20:56:09.287Z,5.80
2022-11-29T20:58:36.169Z,5.80
2022-11-29T21:04:45.987Z,5.90
2022-11-29T21:07:12.890Z,5.90
2022-11-29T21:09:39.697Z,5.80
2022-11-29T21:12:06.885Z,5.80
2022-11-29T21:14:34.002Z,5.90
2022-11-29T21:17:01.097Z,5.80
2022-11-29T21:19:27.965Z,5.80
2022-11-29T21:22:16.104Z,5.80
2022-11-29T21:24:52.534Z,5.80
2022-11-29T21:27:23.623Z,5.80
2022-11-29T21:29:50.865Z,5.80
2022-11-29T21:32:22.929Z,5.80
2022-11-29T21:34:49.759Z,5.80
2022-11-29T21:37:18.287Z,5.80
2022-11-29T21:39:45.117Z,5.80
2022-11-29T21:42:11.925Z,5.80
2022-11-29T21:44:38.780Z,5.80
2022-11-29T21:47:05.583Z,5.80
2022-11-29T21:49:32.399Z,5.80
2022-11-29T21:52:01.067Z,5.90
2022-11-29T21:54:28.483Z,5.80
2022-11-29T21:56:57.620Z,5.80
2022-11-29T22:07:28.654Z,5.90
2022-11-29T22:15:47.881Z,5.90
2022-11-29T22:20:05.238Z,5.90
2022-11-29T22:22:32.102Z,5.90
2022-11-29T22:27:38.839Z,5.90
2022-11-29T22:30:06.795Z,5.90
2022-11-29T22:32:34.481Z,5.90
2022-11-29T22:36:11.237Z,5.90
2022-11-29T22:38:38.429Z,5.90
2022-11-29T22:41:09.077Z,5.90
2022-11-29T22:43:36.459Z,7.60
2022-11-29T22:46:14.575Z,5.90
2022-11-29T22:48:42.029Z,5.80
2022-11-29T22:51:52.485Z,5.80
2022-11-29T22:54:20.295Z,6.40
2022-11-29T22:56:47.469Z,5.80
2022-11-29T23:01:30.935Z,5.80
2022-11-29T23:03:59.077Z,5.80
2022-11-29T23:10:25.363Z,5.70
2022-11-29T23:17:27.507Z,5.80
2022-11-29T23:21:20.492Z,5.80
2022-11-29T23:23:52.902Z,5.80
2022-11-29T23:26:33.989Z,5.70
2022-11-29T23:29:00.790Z,5.70
2022-11-29T23:31:43.355Z,5.70
2022-11-29T23:34:10.245Z,5.70
2022-11-29T23:36:37.038Z,5.70
2022-11-29T23:39:04.758Z,5.70
2022-11-29T23:41:31.547Z,5.70
2022-11-29T23:43:59.743Z,5.70
2022-11-29T23:46:26.701Z,5.70
2022-11-29T23:48:53.571Z,5.70
2022-11-29T23:51:20.495Z,5.70
2022-11-29T23:53:51.495Z,5.70
2022-11-29T23:56:18.426Z,5.70
2022-11-29T23:58:45.433Z,5.70
